sensor_id;sensor_type;location;lat;lon;timestamp;P1;durP1;ratioP1;P2;durP2;ratioP2
40373;SDS011;26079;45.958;12.492;2024-01-27T00:01:42;58.58;;;45.08;;
40373;SDS011;26079;45.958;12.492;2024-01-27T00:04:08;53.15;;;42.50;;
40373;SDS011;26079;45.958;12.492;2024-01-27T00:06:34;53.08;;;42.05;;
40373;SDS011;26079;45.958;12.492;2024-01-27T00:08:59;51.90;;;42.38;;
40373;SDS011;26079;45.958;12.492;2024-01-27T00:11:25;51.22;;;41.00;;
40373;SDS011;26079;45.958;12.492;2024-01-27T00:13:51;53.35;;;42.22;;
40373;SDS011;26079;45.958;12.492;2024-01-27T00:16:17;47.63;;;41.97;;
40373;SDS011;26079;45.958;12.492;2024-01-27T00:18:43;48.97;;;40.28;;
40373;SDS011;26079;45.958;12.492;2024-01-27T00:21:08;52.72;;;43.15;;
40373;SDS011;26079;45.958;12.492;2024-01-27T00:23:34;51.00;;;40.13;;
40373;SDS011;26079;45.958;12.492;2024-01-27T00:26:00;51.63;;;40.55;;
40373;SDS011;26079;45.958;12.492;2024-01-27T00:28:26;51.80;;;42.13;;
40373;SDS011;26079;45.958;12.492;2024-01-27T00:30:52;50.83;;;41.50;;
40373;SDS011;26079;45.958;12.492;2024-01-27T00:33:19;53.45;;;43.10;;
40373;SDS011;26079;45.958;12.492;2024-01-27T00:35:44;56.17;;;41.58;;
40373;SDS011;26079;45.958;12.492;2024-01-27T00:38:10;48.28;;;40.33;;
40373;SDS011;26079;45.958;12.492;2024-01-27T00:40:36;52.28;;;40.30;;
40373;SDS011;26079;45.958;12.492;2024-01-27T00:43:02;54.17;;;39.92;;
40373;SDS011;26079;45.958;12.492;2024-01-27T00:45:28;60.92;;;41.78;;
40373;SDS011;26079;45.958;12.492;2024-01-27T00:47:55;49.22;;;38.90;;
40373;SDS011;26079;45.958;12.492;2024-01-27T00:50:21;48.67;;;39.15;;
40373;SDS011;26079;45.958;12.492;2024-01-27T00:52:47;55.03;;;39.10;;
40373;SDS011;26079;45.958;12.492;2024-01-27T00:55:13;46.55;;;38.47;;
40373;SDS011;26079;45.958;12.492;2024-01-27T00:57:39;50.50;;;38.63;;
40373;SDS011;26079;45.958;12.492;2024-01-27T01:00:06;52.55;;;39.38;;
40373;SDS011;26079;45.958;12.492;2024-01-27T01:02:32;46.17;;;38.38;;
40373;SDS011;26079;45.958;12.492;2024-01-27T01:04:58;47.42;;;38.38;;
40373;SDS011;26079;45.958;12.492;2024-01-27T01:07:24;42.75;;;37.08;;
40373;SDS011;26079;45.958;12.492;2024-01-27T01:09:50;54.47;;;38.78;;
40373;SDS011;26079;45.958;12.492;2024-01-27T01:12:15;52.80;;;38.63;;
40373;SDS011;26079;45.958;12.492;2024-01-27T01:14:42;46.28;;;37.10;;
40373;SDS011;26079;45.958;12.492;2024-01-27T01:17:08;43.95;;;35.83;;
40373;SDS011;26079;45.958;12.492;2024-01-27T01:19:36;45.03;;;36.83;;
40373;SDS011;26079;45.958;12.492;2024-01-27T01:22:02;45.22;;;38.17;;
40373;SDS011;26079;45.958;12.492;2024-01-27T01:24:29;48.70;;;38.47;;
40373;SDS011;26079;45.958;12.492;2024-01-27T01:26:55;44.40;;;37.17;;
40373;SDS011;26079;45.958;12.492;2024-01-27T01:29:20;46.67;;;36.47;;
40373;SDS011;26079;45.958;12.492;2024-01-27T01:31:47;54.58;;;37.20;;
40373;SDS011;26079;45.958;12.492;2024-01-27T01:34:13;44.05;;;36.13;;
40373;SDS011;26079;45.958;12.492;2024-01-27T01:36:39;49.75;;;38.72;;
40373;SDS011;26079;45.958;12.492;2024-01-27T01:39:04;47.60;;;37.97;;
40373;SDS011;26079;45.958;12.492;2024-01-27T01:41:31;43.88;;;36.53;;
40373;SDS011;26079;45.958;12.492;2024-01-27T01:43:57;45.85;;;37.13;;
40373;SDS011;26079;45.958;12.492;2024-01-27T01:46:22;46.05;;;37.15;;
40373;SDS011;26079;45.958;12.492;2024-01-27T01:48:49;45.00;;;36.28;;
40373;SDS011;26079;45.958;12.492;2024-01-27T01:51:18;50.92;;;38.28;;
40373;SDS011;26079;45.958;12.492;2024-01-27T01:53:45;44.70;;;37.55;;
40373;SDS011;26079;45.958;12.492;2024-01-27T01:56:15;52.60;;;36.58;;
40373;SDS011;26079;45.958;12.492;2024-01-27T01:58:41;44.65;;;38.17;;
40373;SDS011;26079;45.958;12.492;2024-01-27T02:01:07;47.97;;;37.20;;
40373;SDS011;26079;45.958;12.492;2024-01-27T02:03:34;48.38;;;37.30;;
40373;SDS011;26079;45.958;12.492;2024-01-27T02:06:00;44.33;;;37.08;;
40373;SDS011;26079;45.958;12.492;2024-01-27T02:08:25;40.33;;;35.92;;
40373;SDS011;26079;45.958;12.492;2024-01-27T02:10:51;48.55;;;37.63;;
40373;SDS011;26079;45.958;12.492;2024-01-27T02:13:21;50.67;;;35.55;;
40373;SDS011;26079;45.958;12.492;2024-01-27T02:15:47;49.97;;;37.28;;
40373;SDS011;26079;45.958;12.492;2024-01-27T02:18:15;46.38;;;37.42;;
40373;SDS011;26079;45.958;12.492;2024-01-27T02:20:41;47.90;;;37.00;;
40373;SDS011;26079;45.958;12.492;2024-01-27T02:23:07;48.08;;;37.42;;
40373;SDS011;26079;45.958;12.492;2024-01-27T02:25:33;45.63;;;36.88;;
40373;SDS011;26079;45.958;12.492;2024-01-27T02:28:00;45.72;;;36.30;;
40373;SDS011;26079;45.958;12.492;2024-01-27T02:30:28;43.25;;;36.50;;
40373;SDS011;26079;45.958;12.492;2024-01-27T02:32:55;45.30;;;37.53;;
40373;SDS011;26079;45.958;12.492;2024-01-27T02:35:22;43.67;;;36.72;;
40373;SDS011;26079;45.958;12.492;2024-01-27T02:37:47;42.40;;;36.15;;
40373;SDS011;26079;45.958;12.492;2024-01-27T02:40:13;43.40;;;34.35;;
40373;SDS011;26079;45.958;12.492;2024-01-27T02:42:39;49.25;;;38.17;;
40373;SDS011;26079;45.958;12.492;2024-01-27T02:45:09;43.92;;;35.65;;
40373;SDS011;26079;45.958;12.492;2024-01-27T02:47:36;45.78;;;36.63;;
40373;SDS011;26079;45.958;12.492;2024-01-27T02:50:02;47.45;;;37.20;;
40373;SDS011;26079;45.958;12.492;2024-01-27T02:52:28;42.20;;;35.50;;
40373;SDS011;26079;45.958;12.492;2024-01-27T02:54:55;44.97;;;36.13;;
40373;SDS011;26079;45.958;12.492;2024-01-27T02:57:21;44.65;;;36.70;;
40373;SDS011;26079;45.958;12.492;2024-01-27T02:59:46;43.30;;;36.13;;
40373;SDS011;26079;45.958;12.492;2024-01-27T03:02:12;38.83;;;33.53;;
40373;SDS011;26079;45.958;12.492;2024-01-27T03:04:38;43.80;;;36.00;;
40373;SDS011;26079;45.958;12.492;2024-01-27T03:07:04;45.33;;;36.58;;
40373;SDS011;26079;45.958;12.492;2024-01-27T03:09:30;42.33;;;34.50;;
40373;SDS011;26079;45.958;12.492;2024-01-27T03:11:57;41.97;;;34.38;;
40373;SDS011;26079;45.958;12.492;2024-01-27T03:14:23;49.72;;;35.15;;
40373;SDS011;26079;45.958;12.492;2024-01-27T03:16:49;41.05;;;32.88;;
40373;SDS011;26079;45.958;12.492;2024-01-27T03:19:15;46.85;;;36.45;;
40373;SDS011;26079;45.958;12.492;2024-01-27T03:21:41;44.70;;;34.72;;
40373;SDS011;26079;45.958;12.492;2024-01-27T03:24:07;40.35;;;34.45;;
40373;SDS011;26079;45.958;12.492;2024-01-27T03:26:32;46.60;;;36.58;;
40373;SDS011;26079;45.958;12.492;2024-01-27T03:28:58;46.55;;;35.50;;
40373;SDS011;26079;45.958;12.492;2024-01-27T03:31:29;43.08;;;34.05;;
40373;SDS011;26079;45.958;12.492;2024-01-27T03:33:56;43.55;;;33.95;;
40373;SDS011;26079;45.958;12.492;2024-01-27T03:36:23;37.83;;;32.47;;
40373;SDS011;26079;45.958;12.492;2024-01-27T03:38:49;46.95;;;35.65;;
40373;SDS011;26079;45.958;12.492;2024-01-27T03:41:14;40.55;;;33.30;;
40373;SDS011;26079;45.958;12.492;2024-01-27T03:43:40;46.33;;;35.53;;
40373;SDS011;26079;45.958;12.492;2024-01-27T03:46:06;43.08;;;34.28;;
40373;SDS011;26079;45.958;12.492;2024-01-27T03:48:32;42.35;;;34.10;;
40373;SDS011;26079;45.958;12.492;2024-01-27T03:51:00;39.90;;;31.80;;
40373;SDS011;26079;45.958;12.492;2024-01-27T03:53:26;38.10;;;31.38;;
40373;SDS011;26079;45.958;12.492;2024-01-27T03:55:52;40.47;;;32.45;;
40373;SDS011;26079;45.958;12.492;2024-01-27T03:58:18;40.38;;;31.20;;
40373;SDS011;26079;45.958;12.492;2024-01-27T04:00:44;41.30;;;32.63;;
40373;SDS011;26079;45.958;12.492;2024-01-27T04:03:09;38.92;;;32.75;;
40373;SDS011;26079;45.958;12.492;2024-01-27T04:05:35;40.03;;;32.50;;
40373;SDS011;26079;45.958;12.492;2024-01-27T04:08:01;37.20;;;32.28;;
40373;SDS011;26079;45.958;12.492;2024-01-27T04:10:27;37.28;;;30.80;;
40373;SDS011;26079;45.958;12.492;2024-01-27T04:12:53;34.17;;;29.95;;
40373;SDS011;26079;45.958;12.492;2024-01-27T04:15:19;36.38;;;30.10;;
40373;SDS011;26079;45.958;12.492;2024-01-27T04:17:44;37.38;;;30.17;;
40373;SDS011;26079;45.958;12.492;2024-01-27T04:20:10;40.63;;;31.10;;
40373;SDS011;26079;45.958;12.492;2024-01-27T04:22:37;41.40;;;29.33;;
40373;SDS011;26079;45.958;12.492;2024-01-27T04:25:04;36.67;;;28.77;;
40373;SDS011;26079;45.958;12.492;2024-01-27T04:27:30;37.72;;;30.83;;
40373;SDS011;26079;45.958;12.492;2024-01-27T04:29:57;35.92;;;28.27;;
40373;SDS011;26079;45.958;12.492;2024-01-27T04:32:22;35.58;;;28.83;;
40373;SDS011;26079;45.958;12.492;2024-01-27T04:34:48;38.28;;;28.95;;
40373;SDS011;26079;45.958;12.492;2024-01-27T04:37:14;50.45;;;35.78;;
40373;SDS011;26079;45.958;12.492;2024-01-27T04:39:40;50.90;;;40.08;;
40373;SDS011;26079;45.958;12.492;2024-01-27T04:42:05;139.57;;;93.25;;
40373;SDS011;26079;45.958;12.492;2024-01-27T04:44:31;114.35;;;76.15;;
40373;SDS011;26079;45.958;12.492;2024-01-27T04:46:57;113.00;;;80.85;;
40373;SDS011;26079;45.958;12.492;2024-01-27T04:49:23;64.30;;;47.70;;
40373;SDS011;26079;45.958;12.492;2024-01-27T04:51:49;58.88;;;42.15;;
40373;SDS011;26079;45.958;12.492;2024-01-27T04:54:15;44.65;;;37.25;;
40373;SDS011;26079;45.958;12.492;2024-01-27T04:56:40;39.92;;;30.95;;
40373;SDS011;26079;45.958;12.492;2024-01-27T04:59:06;36.17;;;27.83;;
40373;SDS011;26079;45.958;12.492;2024-01-27T05:01:32;32.85;;;28.02;;
40373;SDS011;26079;45.958;12.492;2024-01-27T05:03:58;34.83;;;27.90;;
40373;SDS011;26079;45.958;12.492;2024-01-27T05:06:24;36.38;;;27.70;;
40373;SDS011;26079;45.958;12.492;2024-01-27T05:08:49;35.95;;;28.67;;
40373;SDS011;26079;45.958;12.492;2024-01-27T05:11:15;36.22;;;28.08;;
40373;SDS011;26079;45.958;12.492;2024-01-27T05:13:50;43.13;;;30.90;;
40373;SDS011;26079;45.958;12.492;2024-01-27T05:16:15;37.80;;;27.83;;
40373;SDS011;26079;45.958;12.492;2024-01-27T05:18:41;36.85;;;28.38;;
40373;SDS011;26079;45.958;12.492;2024-01-27T05:21:07;37.42;;;28.33;;
40373;SDS011;26079;45.958;12.492;2024-01-27T05:23:32;37.20;;;27.92;;
40373;SDS011;26079;45.958;12.492;2024-01-27T05:25:58;38.47;;;27.60;;
40373;SDS011;26079;45.958;12.492;2024-01-27T05:28:24;33.42;;;25.60;;
40373;SDS011;26079;45.958;12.492;2024-01-27T05:30:49;35.70;;;27.92;;
40373;SDS011;26079;45.958;12.492;2024-01-27T05:33:15;37.25;;;29.13;;
40373;SDS011;26079;45.958;12.492;2024-01-27T05:35:41;36.88;;;28.92;;
40373;SDS011;26079;45.958;12.492;2024-01-27T05:38:07;38.00;;;27.15;;
40373;SDS011;26079;45.958;12.492;2024-01-27T05:40:33;32.30;;;26.77;;
40373;SDS011;26079;45.958;12.492;2024-01-27T05:42:59;34.25;;;27.10;;
40373;SDS011;26079;45.958;12.492;2024-01-27T05:45:24;35.85;;;26.70;;
40373;SDS011;26079;45.958;12.492;2024-01-27T05:47:51;28.85;;;25.25;;
40373;SDS011;26079;45.958;12.492;2024-01-27T05:50:17;40.90;;;28.73;;
40373;SDS011;26079;45.958;12.492;2024-01-27T05:52:42;33.95;;;27.48;;
40373;SDS011;26079;45.958;12.492;2024-01-27T05:55:08;37.55;;;27.00;;
40373;SDS011;26079;45.958;12.492;2024-01-27T05:57:35;36.10;;;29.42;;
40373;SDS011;26079;45.958;12.492;2024-01-27T06:00:00;37.33;;;29.02;;
40373;SDS011;26079;45.958;12.492;2024-01-27T06:02:26;36.95;;;28.20;;
40373;SDS011;26079;45.958;12.492;2024-01-27T06:04:52;35.97;;;28.40;;
40373;SDS011;26079;45.958;12.492;2024-01-27T06:07:17;39.50;;;28.73;;
40373;SDS011;26079;45.958;12.492;2024-01-27T06:09:43;40.90;;;30.50;;
40373;SDS011;26079;45.958;12.492;2024-01-27T06:12:09;60.50;;;30.67;;
40373;SDS011;26079;45.958;12.492;2024-01-27T06:14:34;44.30;;;28.90;;
40373;SDS011;26079;45.958;12.492;2024-01-27T06:17:01;37.40;;;28.17;;
40373;SDS011;26079;45.958;12.492;2024-01-27T06:19:29;35.83;;;28.13;;
40373;SDS011;26079;45.958;12.492;2024-01-27T06:21:55;39.35;;;27.40;;
40373;SDS011;26079;45.958;12.492;2024-01-27T06:24:20;35.22;;;28.70;;
40373;SDS011;26079;45.958;12.492;2024-01-27T06:26:46;34.78;;;26.85;;
40373;SDS011;26079;45.958;12.492;2024-01-27T06:29:12;40.53;;;27.35;;
40373;SDS011;26079;45.958;12.492;2024-01-27T06:31:37;38.22;;;27.70;;
40373;SDS011;26079;45.958;12.492;2024-01-27T06:34:03;38.05;;;29.83;;
40373;SDS011;26079;45.958;12.492;2024-01-27T06:36:29;41.42;;;29.67;;
40373;SDS011;26079;45.958;12.492;2024-01-27T06:38:55;40.38;;;27.25;;
40373;SDS011;26079;45.958;12.492;2024-01-27T06:41:20;37.17;;;28.33;;
40373;SDS011;26079;45.958;12.492;2024-01-27T06:43:46;35.35;;;29.00;;
40373;SDS011;26079;45.958;12.492;2024-01-27T06:46:12;34.85;;;28.88;;
40373;SDS011;26079;45.958;12.492;2024-01-27T06:48:37;45.70;;;31.90;;
40373;SDS011;26079;45.958;12.492;2024-01-27T06:51:03;36.75;;;29.83;;
40373;SDS011;26079;45.958;12.492;2024-01-27T06:53:30;37.00;;;29.17;;
40373;SDS011;26079;45.958;12.492;2024-01-27T06:55:55;40.40;;;30.80;;
40373;SDS011;26079;45.958;12.492;2024-01-27T06:58:21;42.53;;;32.92;;
40373;SDS011;26079;45.958;12.492;2024-01-27T07:00:46;54.08;;;39.10;;
40373;SDS011;26079;45.958;12.492;2024-01-27T07:03:12;44.65;;;35.70;;
40373;SDS011;26079;45.958;12.492;2024-01-27T07:05:38;49.20;;;37.50;;
40373;SDS011;26079;45.958;12.492;2024-01-27T07:08:08;54.42;;;40.15;;
40373;SDS011;26079;45.958;12.492;2024-01-27T07:10:35;57.35;;;40.60;;
40373;SDS011;26079;45.958;12.492;2024-01-27T07:13:01;49.08;;;41.50;;
40373;SDS011;26079;45.958;12.492;2024-01-27T07:15:27;54.70;;;44.80;;
40373;SDS011;26079;45.958;12.492;2024-01-27T07:17:53;56.90;;;42.90;;
40373;SDS011;26079;45.958;12.492;2024-01-27T07:20:19;52.30;;;41.38;;
40373;SDS011;26079;45.958;12.492;2024-01-27T07:22:46;51.25;;;40.95;;
40373;SDS011;26079;45.958;12.492;2024-01-27T07:25:12;60.33;;;42.45;;
40373;SDS011;26079;45.958;12.492;2024-01-27T07:27:38;61.17;;;46.33;;
40373;SDS011;26079;45.958;12.492;2024-01-27T07:30:05;49.30;;;40.15;;
40373;SDS011;26079;45.958;12.492;2024-01-27T07:32:33;49.30;;;40.28;;
40373;SDS011;26079;45.958;12.492;2024-01-27T07:34:58;57.17;;;45.80;;
40373;SDS011;26079;45.958;12.492;2024-01-27T07:37:24;58.05;;;43.33;;
40373;SDS011;26079;45.958;12.492;2024-01-27T07:39:50;69.20;;;52.05;;
40373;SDS011;26079;45.958;12.492;2024-01-27T07:42:16;63.55;;;48.78;;
40373;SDS011;26079;45.958;12.492;2024-01-27T07:44:41;73.32;;;51.95;;
40373;SDS011;26079;45.958;12.492;2024-01-27T07:47:07;91.07;;;53.67;;
40373;SDS011;26079;45.958;12.492;2024-01-27T07:49:36;63.83;;;50.88;;
40373;SDS011;26079;45.958;12.492;2024-01-27T07:52:02;58.78;;;45.20;;
40373;SDS011;26079;45.958;12.492;2024-01-27T07:54:27;58.20;;;42.53;;
40373;SDS011;26079;45.958;12.492;2024-01-27T07:56:54;54.85;;;43.22;;
40373;SDS011;26079;45.958;12.492;2024-01-27T07:59:19;51.45;;;41.58;;
40373;SDS011;26079;45.958;12.492;2024-01-27T08:01:45;61.05;;;40.97;;
40373;SDS011;26079;45.958;12.492;2024-01-27T08:04:11;58.40;;;41.78;;
40373;SDS011;26079;45.958;12.492;2024-01-27T08:06:47;51.60;;;39.80;;
40373;SDS011;26079;45.958;12.492;2024-01-27T08:09:14;49.40;;;39.42;;
40373;SDS011;26079;45.958;12.492;2024-01-27T08:11:39;55.90;;;42.85;;
40373;SDS011;26079;45.958;12.492;2024-01-27T08:14:05;60.15;;;47.60;;
40373;SDS011;26079;45.958;12.492;2024-01-27T08:16:31;56.90;;;43.15;;
40373;SDS011;26079;45.958;12.492;2024-01-27T08:18:56;57.80;;;43.28;;
40373;SDS011;26079;45.958;12.492;2024-01-27T08:21:22;66.28;;;49.90;;
40373;SDS011;26079;45.958;12.492;2024-01-27T08:23:48;73.45;;;55.10;;
40373;SDS011;26079;45.958;12.492;2024-01-27T08:26:14;107.22;;;69.47;;
40373;SDS011;26079;45.958;12.492;2024-01-27T08:28:39;66.13;;;48.75;;
40373;SDS011;26079;45.958;12.492;2024-01-27T08:31:05;64.75;;;52.03;;
40373;SDS011;26079;45.958;12.492;2024-01-27T08:33:31;72.15;;;52.72;;
40373;SDS011;26079;45.958;12.492;2024-01-27T08:35:57;70.80;;;55.88;;
40373;SDS011;26079;45.958;12.492;2024-01-27T08:38:22;69.10;;;51.30;;
40373;SDS011;26079;45.958;12.492;2024-01-27T08:40:48;69.30;;;50.53;;
40373;SDS011;26079;45.958;12.492;2024-01-27T08:43:14;74.00;;;52.22;;
40373;SDS011;26079;45.958;12.492;2024-01-27T08:45:40;63.90;;;50.83;;
40373;SDS011;26079;45.958;12.492;2024-01-27T08:48:05;53.63;;;45.45;;
40373;SDS011;26079;45.958;12.492;2024-01-27T08:50:32;60.30;;;47.95;;
40373;SDS011;26079;45.958;12.492;2024-01-27T08:52:57;58.53;;;46.22;;
40373;SDS011;26079;45.958;12.492;2024-01-27T08:55:23;68.90;;;50.63;;
40373;SDS011;26079;45.958;12.492;2024-01-27T08:57:49;59.35;;;48.28;;
40373;SDS011;26079;45.958;12.492;2024-01-27T09:00:15;71.10;;;52.92;;
40373;SDS011;26079;45.958;12.492;2024-01-27T09:02:42;61.22;;;51.40;;
40373;SDS011;26079;45.958;12.492;2024-01-27T09:05:08;65.00;;;49.53;;
40373;SDS011;26079;45.958;12.492;2024-01-27T09:07:34;74.13;;;51.67;;
40373;SDS011;26079;45.958;12.492;2024-01-27T09:10:00;60.90;;;45.47;;
40373;SDS011;26079;45.958;12.492;2024-01-27T09:12:26;73.03;;;50.08;;
40373;SDS011;26079;45.958;12.492;2024-01-27T09:14:51;67.25;;;48.38;;
40373;SDS011;26079;45.958;12.492;2024-01-27T09:17:19;76.55;;;50.88;;
40373;SDS011;26079;45.958;12.492;2024-01-27T09:19:45;60.40;;;49.35;;
40373;SDS011;26079;45.958;12.492;2024-01-27T09:22:11;67.22;;;50.00;;
40373;SDS011;26079;45.958;12.492;2024-01-27T09:24:37;63.70;;;50.13;;
40373;SDS011;26079;45.958;12.492;2024-01-27T09:27:02;63.83;;;52.47;;
40373;SDS011;26079;45.958;12.492;2024-01-27T09:29:28;78.75;;;61.60;;
40373;SDS011;26079;45.958;12.492;2024-01-27T09:31:54;120.22;;;78.32;;
40373;SDS011;26079;45.958;12.492;2024-01-27T09:34:20;103.72;;;69.57;;
40373;SDS011;26079;45.958;12.492;2024-01-27T09:36:45;91.45;;;62.83;;
40373;SDS011;26079;45.958;12.492;2024-01-27T09:39:11;91.93;;;68.05;;
40373;SDS011;26079;45.958;12.492;2024-01-27T09:41:37;88.70;;;67.43;;
40373;SDS011;26079;45.958;12.492;2024-01-27T09:44:03;68.35;;;57.40;;
40373;SDS011;26079;45.958;12.492;2024-01-27T09:46:30;67.60;;;56.95;;
40373;SDS011;26079;45.958;12.492;2024-01-27T09:48:57;71.20;;;57.63;;
40373;SDS011;26079;45.958;12.492;2024-01-27T09:51:24;69.40;;;57.65;;
40373;SDS011;26079;45.958;12.492;2024-01-27T09:53:50;69.10;;;60.83;;
40373;SDS011;26079;45.958;12.492;2024-01-27T09:56:16;72.55;;;57.85;;
40373;SDS011;26079;45.958;12.492;2024-01-27T09:58:46;73.07;;;57.15;;
40373;SDS011;26079;45.958;12.492;2024-01-27T10:01:16;69.93;;;58.55;;
40373;SDS011;26079;45.958;12.492;2024-01-27T10:03:45;68.57;;;56.67;;
40373;SDS011;26079;45.958;12.492;2024-01-27T10:06:11;88.93;;;66.30;;
40373;SDS011;26079;45.958;12.492;2024-01-27T10:08:37;80.18;;;62.78;;
40373;SDS011;26079;45.958;12.492;2024-01-27T10:11:06;75.68;;;61.20;;
40373;SDS011;26079;45.958;12.492;2024-01-27T10:13:34;76.78;;;62.78;;
40373;SDS011;26079;45.958;12.492;2024-01-27T10:16:07;76.90;;;60.67;;
40373;SDS011;26079;45.958;12.492;2024-01-27T10:18:33;75.00;;;61.83;;
40373;SDS011;26079;45.958;12.492;2024-01-27T10:20:59;67.38;;;55.85;;
40373;SDS011;26079;45.958;12.492;2024-01-27T10:23:25;59.03;;;48.70;;
40373;SDS011;26079;45.958;12.492;2024-01-27T10:25:52;58.03;;;48.88;;
40373;SDS011;26079;45.958;12.492;2024-01-27T10:28:18;67.88;;;51.53;;
40373;SDS011;26079;45.958;12.492;2024-01-27T10:30:44;55.08;;;46.92;;
40373;SDS011;26079;45.958;12.492;2024-01-27T10:33:11;60.28;;;51.20;;
40373;SDS011;26079;45.958;12.492;2024-01-27T10:35:40;55.22;;;48.42;;
40373;SDS011;26079;45.958;12.492;2024-01-27T10:38:07;54.25;;;48.28;;
40373;SDS011;26079;45.958;12.492;2024-01-27T10:40:34;57.22;;;46.60;;
40373;SDS011;26079;45.958;12.492;2024-01-27T10:43:02;56.55;;;46.72;;
40373;SDS011;26079;45.958;12.492;2024-01-27T10:45:36;56.53;;;47.10;;
40373;SDS011;26079;45.958;12.492;2024-01-27T10:48:03;56.80;;;48.97;;
40373;SDS011;26079;45.958;12.492;2024-01-27T10:50:31;60.08;;;52.35;;
40373;SDS011;26079;45.958;12.492;2024-01-27T10:53:09;62.47;;;51.20;;
40373;SDS011;26079;45.958;12.492;2024-01-27T10:55:42;60.65;;;54.05;;
40373;SDS011;26079;45.958;12.492;2024-01-27T10:58:10;63.25;;;49.97;;
40373;SDS011;26079;45.958;12.492;2024-01-27T11:00:37;64.75;;;51.38;;
40373;SDS011;26079;45.958;12.492;2024-01-27T11:03:06;64.75;;;51.67;;
40373;SDS011;26079;45.958;12.492;2024-01-27T11:05:33;56.72;;;48.10;;
40373;SDS011;26079;45.958;12.492;2024-01-27T11:08:02;63.55;;;50.97;;
40373;SDS011;26079;45.958;12.492;2024-01-27T11:10:30;60.55;;;51.13;;
40373;SDS011;26079;45.958;12.492;2024-01-27T11:13:02;65.63;;;49.03;;
40373;SDS011;26079;45.958;12.492;2024-01-27T11:15:29;56.80;;;48.10;;
40373;SDS011;26079;45.958;12.492;2024-01-27T11:17:57;61.13;;;49.28;;
40373;SDS011;26079;45.958;12.492;2024-01-27T11:20:30;64.07;;;51.15;;
40373;SDS011;26079;45.958;12.492;2024-01-27T11:23:07;55.25;;;46.97;;
40373;SDS011;26079;45.958;12.492;2024-01-27T11:25:35;53.53;;;47.80;;
40373;SDS011;26079;45.958;12.492;2024-01-27T11:28:09;61.13;;;47.72;;
40373;SDS011;26079;45.958;12.492;2024-01-27T11:30:44;57.60;;;48.67;;
40373;SDS011;26079;45.958;12.492;2024-01-27T11:33:13;60.15;;;49.10;;
40373;SDS011;26079;45.958;12.492;2024-01-27T11:35:39;55.75;;;49.33;;
40373;SDS011;26079;45.958;12.492;2024-01-27T11:38:04;57.20;;;51.10;;
40373;SDS011;26079;45.958;12.492;2024-01-27T11:40:30;66.40;;;48.22;;
40373;SDS011;26079;45.958;12.492;2024-01-27T11:43:00;53.85;;;47.25;;
40373;SDS011;26079;45.958;12.492;2024-01-27T11:45:27;56.90;;;48.25;;
40373;SDS011;26079;45.958;12.492;2024-01-27T11:47:54;52.05;;;46.35;;
40373;SDS011;26079;45.958;12.492;2024-01-27T11:50:21;54.90;;;43.15;;
40373;SDS011;26079;45.958;12.492;2024-01-27T11:52:47;58.42;;;44.33;;
40373;SDS011;26079;45.958;12.492;2024-01-27T11:55:13;47.50;;;42.50;;
40373;SDS011;26079;45.958;12.492;2024-01-27T11:57:40;52.05;;;43.33;;
40373;SDS011;26079;45.958;12.492;2024-01-27T12:00:06;55.65;;;45.97;;
40373;SDS011;26079;45.958;12.492;2024-01-27T12:02:34;55.17;;;44.53;;
40373;SDS011;26079;45.958;12.492;2024-01-27T12:05:00;55.03;;;45.53;;
40373;SDS011;26079;45.958;12.492;2024-01-27T12:07:26;50.00;;;44.63;;
40373;SDS011;26079;45.958;12.492;2024-01-27T12:09:52;49.40;;;42.28;;
40373;SDS011;26079;45.958;12.492;2024-01-27T12:12:18;52.35;;;46.03;;
40373;SDS011;26079;45.958;12.492;2024-01-27T12:14:45;49.95;;;41.95;;
40373;SDS011;26079;45.958;12.492;2024-01-27T12:17:12;47.97;;;42.75;;
40373;SDS011;26079;45.958;12.492;2024-01-27T12:19:38;45.55;;;40.53;;
40373;SDS011;26079;45.958;12.492;2024-01-27T12:22:04;52.58;;;42.92;;
40373;SDS011;26079;45.958;12.492;2024-01-27T12:24:45;48.63;;;43.63;;
40373;SDS011;26079;45.958;12.492;2024-01-27T12:27:10;52.50;;;44.40;;
40373;SDS011;26079;45.958;12.492;2024-01-27T12:29:36;58.67;;;47.13;;
40373;SDS011;26079;45.958;12.492;2024-01-27T12:32:02;49.15;;;43.50;;
40373;SDS011;26079;45.958;12.492;2024-01-27T12:34:28;46.78;;;41.53;;
40373;SDS011;26079;45.958;12.492;2024-01-27T12:36:54;50.25;;;44.35;;
40373;SDS011;26079;45.958;12.492;2024-01-27T12:39:20;52.33;;;45.38;;
40373;SDS011;26079;45.958;12.492;2024-01-27T12:41:46;55.03;;;44.55;;
40373;SDS011;26079;45.958;12.492;2024-01-27T12:44:11;47.92;;;42.33;;
40373;SDS011;26079;45.958;12.492;2024-01-27T12:46:37;52.08;;;43.08;;
40373;SDS011;26079;45.958;12.492;2024-01-27T12:49:03;45.90;;;41.03;;
40373;SDS011;26079;45.958;12.492;2024-01-27T12:51:29;48.83;;;41.33;;
40373;SDS011;26079;45.958;12.492;2024-01-27T12:53:54;48.13;;;42.90;;
40373;SDS011;26079;45.958;12.492;2024-01-27T12:56:20;48.63;;;39.92;;
40373;SDS011;26079;45.958;12.492;2024-01-27T12:58:46;46.83;;;41.60;;
40373;SDS011;26079;45.958;12.492;2024-01-27T13:01:12;46.80;;;41.67;;
40373;SDS011;26079;45.958;12.492;2024-01-27T13:03:37;46.45;;;39.58;;
40373;SDS011;26079;45.958;12.492;2024-01-27T13:06:04;49.88;;;42.08;;
40373;SDS011;26079;45.958;12.492;2024-01-27T13:08:30;47.47;;;40.17;;
40373;SDS011;26079;45.958;12.492;2024-01-27T13:10:56;46.13;;;41.33;;
40373;SDS011;26079;45.958;12.492;2024-01-27T13:13:21;51.63;;;42.05;;
40373;SDS011;26079;45.958;12.492;2024-01-27T13:15:47;49.33;;;41.55;;
40373;SDS011;26079;45.958;12.492;2024-01-27T13:18:13;47.00;;;41.97;;
40373;SDS011;26079;45.958;12.492;2024-01-27T13:20:38;50.42;;;42.38;;
40373;SDS011;26079;45.958;12.492;2024-01-27T13:23:07;50.05;;;41.03;;
40373;SDS011;26079;45.958;12.492;2024-01-27T13:25:33;49.75;;;40.63;;
40373;SDS011;26079;45.958;12.492;2024-01-27T13:27:59;46.05;;;40.72;;
40373;SDS011;26079;45.958;12.492;2024-01-27T13:30:25;44.85;;;39.95;;
40373;SDS011;26079;45.958;12.492;2024-01-27T13:32:52;46.88;;;42.05;;
40373;SDS011;26079;45.958;12.492;2024-01-27T13:35:17;43.30;;;38.42;;
40373;SDS011;26079;45.958;12.492;2024-01-27T13:37:43;47.20;;;38.50;;
40373;SDS011;26079;45.958;12.492;2024-01-27T13:40:09;43.72;;;39.00;;
40373;SDS011;26079;45.958;12.492;2024-01-27T13:42:35;53.83;;;45.92;;
40373;SDS011;26079;45.958;12.492;2024-01-27T13:45:02;56.45;;;46.85;;
40373;SDS011;26079;45.958;12.492;2024-01-27T13:47:30;58.60;;;43.42;;
40373;SDS011;26079;45.958;12.492;2024-01-27T13:49:56;52.60;;;42.92;;
40373;SDS011;26079;45.958;12.492;2024-01-27T13:52:22;44.25;;;39.42;;
40373;SDS011;26079;45.958;12.492;2024-01-27T13:54:48;53.63;;;42.08;;
40373;SDS011;26079;45.958;12.492;2024-01-27T13:57:15;55.90;;;44.47;;
40373;SDS011;26079;45.958;12.492;2024-01-27T13:59:41;47.88;;;40.30;;
40373;SDS011;26079;45.958;12.492;2024-01-27T14:02:07;48.03;;;39.33;;
40373;SDS011;26079;45.958;12.492;2024-01-27T14:04:33;49.45;;;41.60;;